sensor_id;sensor_type;location;lat;lon;timestamp;temperature;humidity
39849;DHT22;25518;47.878;15.914;2023-08-06T01:14:13;14.10;99.90
39849;DHT22;25518;47.878;15.914;2023-08-06T01:17:05;14.00;99.90
39849;DHT22;25518;47.878;15.914;2023-08-06T01:19:54;13.90;99.90
39849;DHT22;25518;47.878;15.914;2023-08-06T01:22:44;13.80;99.90
39849;DHT22;25518;47.878;15.914;2023-08-06T01:26:09;13.80;99.90
39849;DHT22;25518;47.878;15.914;2023-08-06T01:31:48;10.40;99.90
39849;DHT22;25518;47.878;15.914;2023-08-06T01:34:41;13.80;99.90
39849;DHT22;25518;47.878;15.914;2023-08-06T01:37:33;13.80;99.90
39849;DHT22;25518;47.878;15.914;2023-08-06T01:40:23;13.70;99.90
39849;DHT22;25518;47.878;15.914;2023-08-06T01:43:14;13.60;99.90
39849;DHT22;25518;47.878;15.914;2023-08-06T01:46:04;13.70;99.90
39849;DHT22;25518;47.878;15.914;2023-08-06T01:48:53;13.70;99.90
39849;DHT22;25518;47.878;15.914;2023-08-06T01:51:43;13.80;99.90
39849;DHT22;25518;47.878;15.914;2023-08-06T01:54:32;13.70;99.90
39849;DHT22;25518;47.878;15.914;2023-08-06T01:57:22;13.80;99.90
39849;DHT22;25518;47.878;15.914;2023-08-06T02:00:12;13.70;99.90
39849;DHT22;25518;47.878;15.914;2023-08-06T02:03:02;13.80;99.90
39849;DHT22;25518;47.878;15.914;2023-08-06T02:05:52;13.80;99.90
39849;DHT22;25518;47.878;15.914;2023-08-06T02:08:41;13.70;99.90
39849;DHT22;25518;47.878;15.914;2023-08-06T02:11:31;13.60;99.90
39849;DHT22;25518;47.878;15.914;2023-08-06T02:14:20;13.70;99.90
39849;DHT22;25518;47.878;15.914;2023-08-06T02:17:10;13.70;99.90
39849;DHT22;25518;47.878;15.914;2023-08-06T02:20:00;13.60;99.90
39849;DHT22;25518;47.878;15.914;2023-08-06T02:22:50;13.60;99.90
39849;DHT22;25518;47.878;15.914;2023-08-06T02:25:39;13.60;99.90
39849;DHT22;25518;47.878;15.914;2023-08-06T02:28:30;13.60;99.90
39849;DHT22;25518;47.878;15.914;2023-08-06T02:31:19;13.60;99.90
39849;DHT22;25518;47.878;15.914;2023-08-06T02:34:09;13.60;99.90
39849;DHT22;25518;47.878;15.914;2023-08-06T02:36:59;13.60;99.90
39849;DHT22;25518;47.878;15.914;2023-08-06T02:39:48;13.70;99.90
39849;DHT22;25518;47.878;15.914;2023-08-06T02:42:38;13.20;99.90
39849;DHT22;25518;47.878;15.914;2023-08-06T02:45:29;13.60;99.90
39849;DHT22;25518;47.878;15.914;2023-08-06T02:48:18;13.60;99.90
39849;DHT22;25518;47.878;15.914;2023-08-06T02:51:08;13.60;99.90
39849;DHT22;25518;47.878;15.914;2023-08-06T02:53:57;13.60;99.90
39849;DHT22;25518;47.878;15.914;2023-08-06T02:56:47;13.70;99.90
39849;DHT22;25518;47.878;15.914;2023-08-06T02:59:36;13.70;99.90
39849;DHT22;25518;47.878;15.914;2023-08-06T03:19:21;13.60;99.90
39849;DHT22;25518;47.878;15.914;2023-08-06T03:22:11;13.70;99.90
39849;DHT22;25518;47.878;15.914;2023-08-06T03:25:00;11.30;99.90
39849;DHT22;25518;47.878;15.914;2023-08-06T03:27:50;13.70;99.90
39849;DHT22;25518;47.878;15.914;2023-08-06T03:30:40;13.70;99.90
39849;DHT22;25518;47.878;15.914;2023-08-06T03:33:30;13.70;99.90
39849;DHT22;25518;47.878;15.914;2023-08-06T03:36:20;13.80;99.90
39849;DHT22;25518;47.878;15.914;2023-08-06T03:39:10;13.60;99.90
39849;DHT22;25518;47.878;15.914;2023-08-06T03:42:00;13.70;99.90
39849;DHT22;25518;47.878;15.914;2023-08-06T03:44:49;13.70;99.90
39849;DHT22;25518;47.878;15.914;2023-08-06T03:47:39;13.80;99.90
39849;DHT22;25518;47.878;15.914;2023-08-06T03:50:29;13.80;99.90
39849;DHT22;25518;47.878;15.914;2023-08-06T03:53:19;13.70;99.90
39849;DHT22;25518;47.878;15.914;2023-08-06T03:56:08;13.70;99.90
39849;DHT22;25518;47.878;15.914;2023-08-06T03:58:58;13.60;99.90
39849;DHT22;25518;47.878;15.914;2023-08-06T04:01:47;13.60;99.90
39849;DHT22;25518;47.878;15.914;2023-08-06T04:04:37;13.70;99.90
39849;DHT22;25518;47.878;15.914;2023-08-06T04:07:27;13.70;99.90
39849;DHT22;25518;47.878;15.914;2023-08-06T04:10:16;13.60;99.90
39849;DHT22;25518;47.878;15.914;2023-08-06T04:13:06;13.80;99.90
39849;DHT22;25518;47.878;15.914;2023-08-06T04:16:01;13.60;99.90
39849;DHT22;25518;47.878;15.914;2023-08-06T04:18:51;13.60;99.90
39849;DHT22;25518;47.878;15.914;2023-08-06T04:21:42;13.50;99.90
39849;DHT22;25518;47.878;15.914;2023-08-06T04:24:32;11.70;99.90
39849;DHT22;25518;47.878;15.914;2023-08-06T04:27:22;13.60;99.90
39849;DHT22;25518;47.878;15.914;2023-08-06T04:30:12;13.60;99.90
39849;DHT22;25518;47.878;15.914;2023-08-06T04:33:01;13.70;99.90
39849;DHT22;25518;47.878;15.914;2023-08-06T04:35:55;13.80;99.90
39849;DHT22;25518;47.878;15.914;2023-08-06T04:38:44;13.70;99.90
39849;DHT22;25518;47.878;15.914;2023-08-06T04:41:36;13.70;99.90
39849;DHT22;25518;47.878;15.914;2023-08-06T04:44:26;13.70;99.90
39849;DHT22;25518;47.878;15.914;2023-08-06T04:47:15;13.80;99.90
39849;DHT22;25518;47.878;15.914;2023-08-06T04:50:06;13.90;99.90
39849;DHT22;25518;47.878;15.914;2023-08-06T04:52:56;13.90;99.90
39849;DHT22;25518;47.878;15.914;2023-08-06T04:55:45;13.90;99.90
39849;DHT22;25518;47.878;15.914;2023-08-06T04:58:35;14.10;99.90
39849;DHT22;25518;47.878;15.914;2023-08-06T05:01:25;13.80;99.90
39849;DHT22;25518;47.878;15.914;2023-08-06T05:04:15;13.90;99.90
39849;DHT22;25518;47.878;15.914;2023-08-06T05:07:06;13.70;99.90
39849;DHT22;25518;47.878;15.914;2023-08-06T05:09:55;13.80;99.90
39849;DHT22;25518;47.878;15.914;2023-08-06T05:12:45;13.90;99.90
39849;DHT22;25518;47.878;15.914;2023-08-06T05:15:35;13.80;99.90
39849;DHT22;25518;47.878;15.914;2023-08-06T05:18:24;13.70;99.90
39849;DHT22;25518;47.878;15.914;2023-08-06T05:21:14;13.70;99.90
39849;DHT22;25518;47.878;15.914;2023-08-06T05:24:05;13.80;99.90
39849;DHT22;25518;47.878;15.914;2023-08-06T05:26:55;13.80;99.90
39849;DHT22;25518;47.878;15.914;2023-08-06T05:29:45;13.90;99.90
39849;DHT22;25518;47.878;15.914;2023-08-06T05:32:35;13.90;99.90
39849;DHT22;25518;47.878;15.914;2023-08-06T05:35:24;13.90;99.90
39849;DHT22;25518;47.878;15.914;2023-08-06T05:38:14;13.90;99.90
39849;DHT22;25518;47.878;15.914;2023-08-06T05:41:03;13.80;99.90
39849;DHT22;25518;47.878;15.914;2023-08-06T05:43:53;13.30;99.90
39849;DHT22;25518;47.878;15.914;2023-08-06T05:46:43;13.90;99.90
39849;DHT22;25518;47.878;15.914;2023-08-06T05:49:32;13.90;99.90
39849;DHT22;25518;47.878;15.914;2023-08-06T05:52:22;14.00;99.90
39849;DHT22;25518;47.878;15.914;2023-08-06T05:55:12;14.00;99.90
39849;DHT22;25518;47.878;15.914;2023-08-06T05:58:01;14.00;99.90
39849;DHT22;25518;47.878;15.914;2023-08-06T06:00:51;14.00;99.90
39849;DHT22;25518;47.878;15.914;2023-08-06T06:03:41;14.00;99.90
39849;DHT22;25518;47.878;15.914;2023-08-06T06:06:31;14.00;99.90
39849;DHT22;25518;47.878;15.914;2023-08-06T06:09:21;14.10;99.90
39849;DHT22;25518;47.878;15.914;2023-08-06T06:12:10;14.00;99.90
39849;DHT22;25518;47.878;15.914;2023-08-06T06:15:00;14.00;99.90
39849;DHT22;25518;47.878;15.914;2023-08-06T06:17:50;13.70;99.90
39849;DHT22;25518;47.878;15.914;2023-08-06T06:20:40;14.00;99.90
39849;DHT22;25518;47.878;15.914;2023-08-06T06:23:29;14.00;99.90
39849;DHT22;25518;47.878;15.914;2023-08-06T06:26:19;14.00;99.90
39849;DHT22;25518;47.878;15.914;2023-08-06T06:29:09;14.00;99.90
39849;DHT22;25518;47.878;15.914;2023-08-06T06:31:58;14.10;99.90
39849;DHT22;25518;47.878;15.914;2023-08-06T06:34:48;14.00;99.90
39849;DHT22;25518;47.878;15.914;2023-08-06T06:37:37;14.20;99.90
39849;DHT22;25518;47.878;15.914;2023-08-06T06:40:27;14.20;99.90
39849;DHT22;25518;47.878;15.914;2023-08-06T06:43:17;14.20;99.90
39849;DHT22;25518;47.878;15.914;2023-08-06T06:46:07;14.00;99.90
39849;DHT22;25518;47.878;15.914;2023-08-06T06:48:57;14.00;99.90
39849;DHT22;25518;47.878;15.914;2023-08-06T06:51:46;13.90;99.90
39849;DHT22;25518;47.878;15.914;2023-08-06T06:54:36;13.80;99.90
39849;DHT22;25518;47.878;15.914;2023-08-06T06:57:25;13.80;99.90
39849;DHT22;25518;47.878;15.914;2023-08-06T07:00:15;13.90;99.90
39849;DHT22;25518;47.878;15.914;2023-08-06T07:03:05;13.80;99.90
39849;DHT22;25518;47.878;15.914;2023-08-06T07:05:57;11.30;99.90
39849;DHT22;25518;47.878;15.914;2023-08-06T07:08:49;13.80;99.90
39849;DHT22;25518;47.878;15.914;2023-08-06T07:11:38;13.80;99.90
39849;DHT22;25518;47.878;15.914;2023-08-06T07:14:29;13.90;99.90
39849;DHT22;25518;47.878;15.914;2023-08-06T07:17:18;13.90;99.90
39849;DHT22;25518;47.878;15.914;2023-08-06T07:20:08;13.90;99.90
39849;DHT22;25518;47.878;15.914;2023-08-06T07:22:59;14.00;99.90
39849;DHT22;25518;47.878;15.914;2023-08-06T07:25:48;14.00;99.90
39849;DHT22;25518;47.878;15.914;2023-08-06T07:28:38;14.30;99.90
39849;DHT22;25518;47.878;15.914;2023-08-06T07:31:28;14.20;99.90
39849;DHT22;25518;47.878;15.914;2023-08-06T07:34:17;14.10;99.90
39849;DHT22;25518;47.878;15.914;2023-08-06T07:37:07;14.20;99.90
39849;DHT22;25518;47.878;15.914;2023-08-06T07:39:57;14.40;99.90
39849;DHT22;25518;47.878;15.914;2023-08-06T07:42:47;14.50;99.90
39849;DHT22;25518;47.878;15.914;2023-08-06T07:45:36;14.40;99.90
39849;DHT22;25518;47.878;15.914;2023-08-06T07:48:27;14.40;99.90
39849;DHT22;25518;47.878;15.914;2023-08-06T07:51:17;14.30;99.90
39849;DHT22;25518;47.878;15.914;2023-08-06T07:54:07;14.30;99.90
39849;DHT22;25518;47.878;15.914;2023-08-06T07:56:57;14.20;99.90
39849;DHT22;25518;47.878;15.914;2023-08-06T07:59:46;14.30;99.90
39849;DHT22;25518;47.878;15.914;2023-08-06T08:02:36;14.40;99.90
39849;DHT22;25518;47.878;15.914;2023-08-06T08:05:26;14.40;99.90
39849;DHT22;25518;47.878;15.914;2023-08-06T08:08:15;14.30;99.90
39849;DHT22;25518;47.878;15.914;2023-08-06T08:11:06;14.30;99.90
39849;DHT22;25518;47.878;15.914;2023-08-06T08:13:57;14.40;99.90
39849;DHT22;25518;47.878;15.914;2023-08-06T08:16:47;12.60;99.90
39849;DHT22;25518;47.878;15.914;2023-08-06T08:19:36;14.40;99.90
39849;DHT22;25518;47.878;15.914;2023-08-06T08:22:26;14.40;99.90
39849;DHT22;25518;47.878;15.914;2023-08-06T08:25:16;14.50;99.90
39849;DHT22;25518;47.878;15.914;2023-08-06T08:28:06;14.50;99.90
39849;DHT22;25518;47.878;15.914;2023-08-06T08:30:56;14.50;99.90
39849;DHT22;25518;47.878;15.914;2023-08-06T08:33:46;14.60;99.90
39849;DHT22;25518;47.878;15.914;2023-08-06T08:36:35;14.40;99.90
39849;DHT22;25518;47.878;15.914;2023-08-06T08:39:25;14.40;99.90
39849;DHT22;25518;47.878;15.914;2023-08-06T08:42:15;14.50;99.90
39849;DHT22;25518;47.878;15.914;2023-08-06T08:45:11;14.60;99.90
39849;DHT22;25518;47.878;15.914;2023-08-06T08:48:01;14.60;99.90
39849;DHT22;25518;47.878;15.914;2023-08-06T08:50:51;14.50;99.90
39849;DHT22;25518;47.878;15.914;2023-08-06T08:53:41;14.60;99.90
39849;DHT22;25518;47.878;15.914;2023-08-06T08:56:33;14.60;99.90
39849;DHT22;25518;47.878;15.914;2023-08-06T08:59:22;14.70;99.90
39849;DHT22;25518;47.878;15.914;2023-08-06T09:02:13;14.70;99.90
39849;DHT22;25518;47.878;15.914;2023-08-06T09:05:05;12.20;99.90
39849;DHT22;25518;47.878;15.914;2023-08-06T09:08:02;11.50;99.90
39849;DHT22;25518;47.878;15.914;2023-08-06T09:10:52;14.90;99.90
39849;DHT22;25518;47.878;15.914;2023-08-06T09:13:42;14.80;99.90
39849;DHT22;25518;47.878;15.914;2023-08-06T09:16:32;14.80;99.90
39849;DHT22;25518;47.878;15.914;2023-08-06T09:19:21;14.90;99.90
39849;DHT22;25518;47.878;15.914;2023-08-06T09:22:12;14.90;99.90
39849;DHT22;25518;47.878;15.914;2023-08-06T09:25:03;15.00;99.90
39849;DHT22;25518;47.878;15.914;2023-08-06T09:27:58;15.00;99.90
39849;DHT22;25518;47.878;15.914;2023-08-06T09:30:48;14.90;99.90
39849;DHT22;25518;47.878;15.914;2023-08-06T09:33:38;14.90;99.90
39849;DHT22;25518;47.878;15.914;2023-08-06T09:36:27;15.00;99.90
39849;DHT22;25518;47.878;15.914;2023-08-06T09:39:18;15.00;99.90
39849;DHT22;25518;47.878;15.914;2023-08-06T09:42:08;15.00;99.90
39849;DHT22;25518;47.878;15.914;2023-08-06T09:45:06;14.90;99.90
39849;DHT22;25518;47.878;15.914;2023-08-06T09:47:56;14.90;99.90
39849;DHT22;25518;47.878;15.914;2023-08-06T09:50:47;15.00;99.90
39849;DHT22;25518;47.878;15.914;2023-08-06T09:53:38;14.90;99.90
39849;DHT22;25518;47.878;15.914;2023-08-06T09:56:30;15.00;99.90
39849;DHT22;25518;47.878;15.914;2023-08-06T09:59:26;15.10;99.90
39849;DHT22;25518;47.878;15.914;2023-08-06T10:02:18;15.10;99.90
39849;DHT22;25518;47.878;15.914;2023-08-06T10:05:09;15.20;99.90
39849;DHT22;25518;47.878;15.914;2023-08-06T10:08:00;15.10;99.90
39849;DHT22;25518;47.878;15.914;2023-08-06T10:10:51;15.10;99.90
39849;DHT22;25518;47.878;15.914;2023-08-06T10:13:41;15.30;99.90
39849;DHT22;25518;47.878;15.914;2023-08-06T10:16:32;15.40;99.90
39849;DHT22;25518;47.878;15.914;2023-08-06T10:19:22;15.30;99.90
39849;DHT22;25518;47.878;15.914;2023-08-06T10:22:15;15.50;99.90
39849;DHT22;25518;47.878;15.914;2023-08-06T10:25:06;15.40;99.90
39849;DHT22;25518;47.878;15.914;2023-08-06T10:27:56;15.60;99.90
39849;DHT22;25518;47.878;15.914;2023-08-06T10:30:47;15.70;99.90
39849;DHT22;25518;47.878;15.914;2023-08-06T10:36:31;16.00;99.90
39849;DHT22;25518;47.878;15.914;2023-08-06T10:39:22;16.00;99.90
39849;DHT22;25518;47.878;15.914;2023-08-06T10:42:28;16.10;99.90
39849;DHT22;25518;47.878;15.914;2023-08-06T10:45:19;16.00;99.90
39849;DHT22;25518;47.878;15.914;2023-08-06T10:48:09;16.00;99.90
39849;DHT22;25518;47.878;15.914;2023-08-06T10:51:00;15.90;99.90
39849;DHT22;25518;47.878;15.914;2023-08-06T10:53:51;15.80;99.90
39849;DHT22;25518;47.878;15.914;2023-08-06T10:56:41;15.70;99.90
39849;DHT22;25518;47.878;15.914;2023-08-06T10:59:33;15.80;99.90
39849;DHT22;25518;47.878;15.914;2023-08-06T11:02:23;15.70;99.90
39849;DHT22;25518;47.878;15.914;2023-08-06T11:05:12;15.70;99.90
39849;DHT22;25518;47.878;15.914;2023-08-06T11:08:02;15.80;99.90
39849;DHT22;25518;47.878;15.914;2023-08-06T11:10:51;15.80;99.90
39849;DHT22;25518;47.878;15.914;2023-08-06T11:13:43;15.60;99.90
39849;DHT22;25518;47.878;15.914;2023-08-06T11:16:33;15.50;99.90
39849;DHT22;25518;47.878;15.914;2023-08-06T11:19:23;15.60;99.90
39849;DHT22;25518;47.878;15.914;2023-08-06T11:22:14;15.60;99.90
39849;DHT22;25518;47.878;15.914;2023-08-06T11:25:05;15.50;99.90
39849;DHT22;25518;47.878;15.914;2023-08-06T11:27:56;15.60;99.90
39849;DHT22;25518;47.878;15.914;2023-08-06T11:30:45;15.60;99.90
39849;DHT22;25518;47.878;15.914;2023-08-06T11:33:35;15.60;99.90
39849;DHT22;25518;47.878;15.914;2023-08-06T11:36:34;15.90;99.90
39849;DHT22;25518;47.878;15.914;2023-08-06T11:39:24;15.90;99.90
39849;DHT22;25518;47.878;15.914;2023-08-06T11:42:14;15.90;99.90
39849;DHT22;25518;47.878;15.914;2023-08-06T11:45:04;16.10;99.90
39849;DHT22;25518;47.878;15.914;2023-08-06T11:47:54;16.10;99.90
39849;DHT22;25518;47.878;15.914;2023-08-06T11:50:44;16.10;99.90
39849;DHT22;25518;47.878;15.914;2023-08-06T11:53:34;16.20;99.90
39849;DHT22;25518;47.878;15.914;2023-08-06T11:56:24;16.10;99.90
39849;DHT22;25518;47.878;15.914;2023-08-06T11:59:15;16.20;99.90
39849;DHT22;25518;47.878;15.914;2023-08-06T12:02:07;16.30;99.90
39849;DHT22;25518;47.878;15.914;2023-08-06T12:07:56;16.40;99.90
39849;DHT22;25518;47.878;15.914;2023-08-06T12:10:46;16.50;99.90
39849;DHT22;25518;47.878;15.914;2023-08-06T12:13:36;16.40;99.90
39849;DHT22;25518;47.878;15.914;2023-08-06T12:16:26;16.50;99.90
39849;DHT22;25518;47.878;15.914;2023-08-06T12:19:15;16.60;99.90
39849;DHT22;25518;47.878;15.914;2023-08-06T12:22:05;16.60;99.90
39849;DHT22;25518;47.878;15.914;2023-08-06T12:24:55;16.70;99.90
39849;DHT22;25518;47.878;15.914;2023-08-06T12:27:46;17.00;99.90
39849;DHT22;25518;47.878;15.914;2023-08-06T12:30:36;17.00;99.90
39849;DHT22;25518;47.878;15.914;2023-08-06T12:33:25;17.00;99.90
39849;DHT22;25518;47.878;15.914;2023-08-06T12:36:15;16.90;99.90
39849;DHT22;25518;47.878;15.914;2023-08-06T12:39:04;16.80;99.90
39849;DHT22;25518;47.878;15.914;2023-08-06T12:41:55;16.60;99.90
39849;DHT22;25518;47.878;15.914;2023-08-06T12:44:48;16.50;99.90
39849;DHT22;25518;47.878;15.914;2023-08-06T12:47:38;16.50;99.90
39849;DHT22;25518;47.878;15.914;2023-08-06T12:50:28;16.60;99.90
39849;DHT22;25518;47.878;15.914;2023-08-06T12:53:17;16.80;99.90
39849;DHT22;25518;47.878;15.914;2023-08-06T12:56:07;16.40;99.90
39849;DHT22;25518;47.878;15.914;2023-08-06T12:58:56;16.90;99.90
39849;DHT22;25518;47.878;15.914;2023-08-06T13:01:46;17.00;99.90
39849;DHT22;25518;47.878;15.914;2023-08-06T13:04:37;16.90;99.90
39849;DHT22;25518;47.878;15.914;2023-08-06T13:07:27;16.90;99.90
39849;DHT22;25518;47.878;15.914;2023-08-06T13:10:16;16.80;99.90
39849;DHT22;25518;47.878;15.914;2023-08-06T13:13:06;16.80;99.90
39849;DHT22;25518;47.878;15.914;2023-08-06T13:15:56;16.80;99.90
39849;DHT22;25518;47.878;15.914;2023-08-06T13:18:45;16.90;99.90
39849;DHT22;25518;47.878;15.914;2023-08-06T13:21:59;16.70;99.90
39849;DHT22;25518;47.878;15.914;2023-08-06T13:24:49;17.00;99.90
39849;DHT22;25518;47.878;15.914;2023-08-06T13:27:39;17.20;99.90
39849;DHT22;25518;47.878;15.914;2023-08-06T13:30:30;17.50;99.90
39849;DHT22;25518;47.878;15.914;2023-08-06T13:33:19;17.80;99.90
39849;DHT22;25518;47.878;15.914;2023-08-06T13:36:09;18.00;99.90
39849;DHT22;25518;47.878;15.914;2023-08-06T13:38:59;17.90;99.90
39849;DHT22;25518;47.878;15.914;2023-08-06T13:41:49;18.00;99.90
39849;DHT22;25518;47.878;15.914;2023-08-06T13:44:38;17.80;99.90
39849;DHT22;25518;47.878;15.914;2023-08-06T13:47:28;17.30;99.90
39849;DHT22;25518;47.878;15.914;2023-08-06T13:50:17;16.80;99.90
39849;DHT22;25518;47.878;15.914;2023-08-06T13:53:08;16.20;99.90
39849;DHT22;25518;47.878;15.914;2023-08-06T13:55:57;16.10;99.90
39849;DHT22;25518;47.878;15.914;2023-08-06T13:58:47;16.00;99.90
39849;DHT22;25518;47.878;15.914;2023-08-06T14:01:36;16.00;99.90
39849;DHT22;25518;47.878;15.914;2023-08-06T14:04:26;15.90;99.90
39849;DHT22;25518;47.878;15.914;2023-08-06T14:07:16;16.00;99.90
39849;DHT22;25518;47.878;15.914;2023-08-06T14:10:06;16.10;99.90
39849;DHT22;25518;47.878;15.914;2023-08-06T14:12:58;16.20;99.90
39849;DHT22;25518;47.878;15.914;2023-08-06T14:15:48;16.30;99.90
39849;DHT22;25518;47.878;15.914;2023-08-06T14:18:37;15.00;99.90
39849;DHT22;25518;47.878;15.914;2023-08-06T14:21:27;16.00;99.90
39849;DHT22;25518;47.878;15.914;2023-08-06T14:24:17;16.20;99.90
39849;DHT22;25518;47.878;15.914;2023-08-06T14:27:07;16.20;99.90
39849;DHT22;25518;47.878;15.914;2023-08-06T14:29:56;16.40;99.90
39849;DHT22;25518;47.878;15.914;2023-08-06T14:32:46;16.50;99.90
39849;DHT22;25518;47.878;15.914;2023-08-06T14:35:36;16.40;99.90
39849;DHT22;25518;47.878;15.914;2023-08-06T14:38:25;16.40;99.90
39849;DHT22;25518;47.878;15.914;2023-08-06T14:41:15;16.60;99.90
39849;DHT22;25518;47.878;15.914;2023-08-06T14:44:04;16.50;99.90
39849;DHT22;25518;47.878;15.914;2023-08-06T14:46:54;16.40;99.90
39849;DHT22;25518;47.878;15.914;2023-08-06T14:49:44;16.20;99.90
39849;DHT22;25518;47.878;15.914;2023-08-06T14:52:34;16.10;99.90
39849;DHT22;25518;47.878;15.914;2023-08-06T14:55:25;15.80;99.90
39849;DHT22;25518;47.878;15.914;2023-08-06T14:58:15;15.60;99.90
39849;DHT22;25518;47.878;15.914;2023-08-06T15:01:05;15.60;99.90
39849;DHT22;25518;47.878;15.914;2023-08-06T15:03:54;15.60;99.90
39849;DHT22;25518;47.878;15.914;2023-08-06T15:06:44;15.70;99.90
39849;DHT22;25518;47.878;15.914;2023-08-06T15:09:34;15.90;99.90
39849;DHT22;25518;47.878;15.914;2023-08-06T15:12:23;15.80;99.90
39849;DHT22;25518;47.878;15.914;2023-08-06T15:15:13;15.80;99.90
39849;DHT22;25518;47.878;15.914;2023-08-06T15:18:03;16.00;99.90
39849;DHT22;25518;47.878;15.914;2023-08-06T15:20:52;16.50;99.90
39849;DHT22;25518;47.878;15.914;2023-08-06T15:23:42;16.60;99.90
39849;DHT22;25518;47.878;15.914;2023-08-06T15:26:32;16.70;99.90
39849;DHT22;25518;47.878;15.914;2023-08-06T15:29:23;16.70;99.90
39849;DHT22;25518;47.878;15.914;2023-08-06T15:32:12;16.50;99.90
39849;DHT22;25518;47.878;15.914;2023-08-06T15:35:02;16.30;99.90
39849;DHT22;25518;47.878;15.914;2023-08-06T15:37:53;16.30;99.90
39849;DHT22;25518;47.878;15.914;2023-08-06T15:40:43;16.10;99.90
39849;DHT22;25518;47.878;15.914;2023-08-06T15:43:35;16.20;99.90
39849;DHT22;25518;47.878;15.914;2023-08-06T15:46:24;16.00;99.90
39849;DHT22;25518;47.878;15.914;2023-08-06T15:49:14;15.90;99.90
39849;DHT22;25518;47.878;15.914;2023-08-06T15:52:04;15.90;99.90
39849;DHT22;25518;47.878;15.914;2023-08-06T15:54:53;15.90;99.90
39849;DHT22;25518;47.878;15.914;2023-08-06T15:57:43;14.30;99.90
39849;DHT22;25518;47.878;15.914;2023-08-06T16:00:33;16.20;99.90
39849;DHT22;25518;47.878;15.914;2023-08-06T16:03:23;16.40;99.90
39849;DHT22;25518;47.878;15.914;2023-08-06T16:06:13;16.30;99.90
39849;DHT22;25518;47.878;15.914;2023-08-06T16:09:02;16.20;99.90
39849;DHT22;25518;47.878;15.914;2023-08-06T16:11:52;16.20;99.90
39849;DHT22;25518;47.878;15.914;2023-08-06T16:14:42;16.00;99.90
39849;DHT22;25518;47.878;15.914;2023-08-06T16:17:32;15.90;99.90
39849;DHT22;25518;47.878;15.914;2023-08-06T16:20:22;15.80;99.90
39849;DHT22;25518;47.878;15.914;2023-08-06T16:23:11;15.20;99.90
39849;DHT22;25518;47.878;15.914;2023-08-06T16:26:01;15.60;99.90
39849;DHT22;25518;47.878;15.914;2023-08-06T16:28:50;15.60;99.90
39849;DHT22;25518;47.878;15.914;2023-08-06T16:31:40;15.60;99.90
39849;DHT22;25518;47.878;15.914;2023-08-06T16:34:29;15.80;99.90
39849;DHT22;25518;47.878;15.914;2023-08-06T16:37:21;15.80;99.90
39849;DHT22;25518;47.878;15.914;2023-08-06T16:40:10;15.70;99.90
39849;DHT22;25518;47.878;15.914;2023-08-06T16:43:00;15.10;99.90
39849;DHT22;25518;47.878;15.914;2023-08-06T16:45:52;15.60;99.90
39849;DHT22;25518;47.878;15.914;2023-08-06T16:48:43;15.60;99.90
39849;DHT22;25518;47.878;15.914;2023-08-06T16:51:33;15.60;99.90
39849;DHT22;25518;47.878;15.914;2023-08-06T16:54:23;15.50;99.90
39849;DHT22;25518;47.878;15.914;2023-08-06T16:57:12;15.60;99.90
39849;DHT22;25518;47.878;15.914;2023-08-06T17:00:03;15.60;99.90
39849;DHT22;25518;47.878;15.914;2023-08-06T17:02:52;15.60;99.90
39849;DHT22;25518;47.878;15.914;2023-08-06T17:05:43;15.50;99.90
39849;DHT22;25518;47.878;15.914;2023-08-06T17:08:33;15.50;99.90
39849;DHT22;25518;47.878;15.914;2023-08-06T17:11:24;15.50;99.90
39849;DHT22;25518;47.878;15.914;2023-08-06T17:14:13;15.50;99.90
39849;DHT22;25518;47.878;15.914;2023-08-06T17:17:03;15.50;99.90
39849;DHT22;25518;47.878;15.914;2023-08-06T17:19:53;15.50;99.90
39849;DHT22;25518;47.878;15.914;2023-08-06T17:22:43;15.40;99.90
39849;DHT22;25518;47.878;15.914;2023-08-06T17:25:32;15.30;99.90
39849;DHT22;25518;47.878;15.914;2023-08-06T17:28:24;15.30;99.90
39849;DHT22;25518;47.878;15.914;2023-08-06T17:31:14;15.20;99.90
39849;DHT22;25518;47.878;15.914;2023-08-06T17:34:03;15.20;99.90
39849;DHT22;25518;47.878;15.914;2023-08-06T17:36:53;15.20;99.90
39849;DHT22;25518;47.878;15.914;2023-08-06T17:39:43;15.30;99.90
39849;DHT22;25518;47.878;15.914;2023-08-06T17:42:32;15.20;99.90
39849;DHT22;25518;47.878;15.914;2023-08-06T17:45:22;15.20;99.90
39849;DHT22;25518;47.878;15.914;2023-08-06T17:48:12;15.30;99.90
39849;DHT22;25518;47.878;15.914;2023-08-06T17:51:04;15.30;99.90
39849;DHT22;25518;47.878;15.914;2023-08-06T17:53:54;15.20;99.90
39849;DHT22;25518;47.878;15.914;2023-08-06T17:56:44;15.20;99.90
39849;DHT22;25518;47.878;15.914;2023-08-06T17:59:33;15.10;99.90
39849;DHT22;25518;47.878;15.914;2023-08-06T18:02:23;15.00;99.90
39849;DHT22;25518;47.878;15.914;2023-08-06T18:05:16;15.20;99.90
39849;DHT22;25518;47.878;15.914;2023-08-06T18:08:06;15.20;99.90
39849;DHT22;25518;47.878;15.914;2023-08-06T18:10:56;15.20;99.90
39849;DHT22;25518;47.878;15.914;2023-08-06T18:13:45;15.10;99.90
39849;DHT22;25518;47.878;15.914;2023-08-06T18:16:35;15.10;99.90
39849;DHT22;25518;47.878;15.914;2023-08-06T18:19:24;12.70;99.90
39849;DHT22;25518;47.878;15.914;2023-08-06T18:22:14;15.10;99.90
39849;DHT22;25518;47.878;15.914;2023-08-06T18:25:05;15.00;99.90
39849;DHT22;25518;47.878;15.914;2023-08-06T18:27:57;14.60;99.90
39849;DHT22;25518;47.878;15.914;2023-08-06T18:30:46;14.70;99.90
39849;DHT22;25518;47.878;15.914;2023-08-06T18:33:37;14.70;99.90
39849;DHT22;25518;47.878;15.914;2023-08-06T18:36:28;14.70;99.90
39849;DHT22;25518;47.878;15.914;2023-08-06T18:39:18;14.70;99.90
39849;DHT22;25518;47.878;15.914;2023-08-06T18:42:08;14.70;99.90
39849;DHT22;25518;47.878;15.914;2023-08-06T18:44:58;14.70;99.90
39849;DHT22;25518;47.878;15.914;2023-08-06T18:47:47;14.70;99.90
39849;DHT22;25518;47.878;15.914;2023-08-06T18:50:37;14.60;99.90
39849;DHT22;25518;47.878;15.914;2023-08-06T18:53:26;14.70;99.90
39849;DHT22;25518;47.878;15.914;2023-08-06T18:56:16;14.60;99.90
39849;DHT22;25518;47.878;15.914;2023-08-06T18:59:05;14.50;99.90
39849;DHT22;25518;47.878;15.914;2023-08-06T19:01:56;14.60;99.90
39849;DHT22;25518;47.878;15.914;2023-08-06T19:04:45;13.70;99.90
39849;DHT22;25518;47.878;15.914;2023-08-06T19:07:37;14.60;99.90
39849;DHT22;25518;47.878;15.914;2023-08-06T19:10:27;14.70;99.90
39849;DHT22;25518;47.878;15.914;2023-08-06T19:13:17;14.60;99.90
39849;DHT22;25518;47.878;15.914;2023-08-06T19:16:07;14.60;99.90